createdAt,value
2022-10-06T00:00:38.367Z,102125.28
2022-10-06T00:03:04.810Z,102136.50
2022-10-06T00:05:31.297Z,102139.69
2022-10-06T00:07:58.309Z,102147.84
2022-10-06T00:10:24.750Z,102144.66
2022-10-06T00:12:52.585Z,102146.72
2022-10-06T00:15:22.083Z,102150.75
2022-10-06T00:17:48.735Z,102162.78
2022-10-06T00:20:15.653Z,102169.19
2022-10-06T00:22:45.771Z,102175.28
2022-10-06T00:25:15.384Z,102177.84
2022-10-06T00:27:44.200Z,102181.34
2022-10-06T00:30:13.284Z,102205.06
2022-10-06T00:32:40.231Z,102205.25
2022-10-06T00:35:08.145Z,102213.72
2022-10-06T00:37:37.205Z,102217.09
2022-10-06T00:40:09.784Z,102217.25
2022-10-06T00:42:58.089Z,102233.38
2022-10-06T00:45:27.940Z,102230.19
2022-10-06T00:47:57.533Z,102235.66
2022-10-06T00:50:24.062Z,102246.69
2022-10-06T00:52:50.520Z,102245.75
2022-10-06T00:55:17.069Z,102251.34
2022-10-06T00:57:43.751Z,102257.09
2022-10-06T01:00:10.792Z,102252.63
2022-10-06T01:02:46.581Z,102250.06
2022-10-06T01:05:20.491Z,102264.00
2022-10-06T01:07:46.987Z,102258.88
2022-10-06T01:10:13.478Z,102271.97
2022-10-06T01:12:40.254Z,102272.16
2022-10-06T01:15:08.022Z,102284.50
2022-10-06T01:17:43.411Z,102285.28
2022-10-06T01:20:12.834Z,102292.66
2022-10-06T01:23:05.023Z,102295.03
2022-10-06T01:25:34.286Z,102298.22
2022-10-06T01:28:02.904Z,102299.84
2022-10-06T01:30:33.943Z,102301.44
2022-10-06T01:33:00.728Z,102313.91
2022-10-06T01:35:27.426Z,102320.31
2022-10-06T01:37:54.706Z,102314.88
2022-10-06T01:40:21.454Z,102317.94
2022-10-06T01:42:47.878Z,102329.44
2022-10-06T01:45:14.288Z,102325.13
2022-10-06T01:47:40.715Z,102332.94
2022-10-06T01:50:08.295Z,102335.50
2022-10-06T01:52:36.200Z,102331.66
2022-10-06T01:55:03.658Z,102330.06
2022-10-06T01:57:30.159Z,102342.53
2022-10-06T01:59:56.575Z,102334.03
2022-10-06T02:02:23.111Z,102341.22
2022-10-06T02:04:49.587Z,102336.53
2022-10-06T02:07:16.127Z,102332.69
2022-10-06T02:09:42.622Z,102352.66
2022-10-06T02:12:09.028Z,102359.34
2022-10-06T02:14:35.441Z,102356.63
2022-10-06T02:17:01.823Z,102363.00
2022-10-06T02:19:28.293Z,102374.03
2022-10-06T02:21:54.774Z,102377.53
2022-10-06T02:24:21.249Z,102372.91
2022-10-06T02:26:47.690Z,102375.75
2022-10-06T02:29:14.198Z,102381.50
2022-10-06T02:31:40.633Z,102398.75
2022-10-06T02:34:07.169Z,102397.44
2022-10-06T02:36:33.568Z,102397.28
2022-10-06T02:39:00.014Z,102402.03
2022-10-06T02:41:26.562Z,102402.97
2022-10-06T02:43:55.161Z,102411.25
2022-10-06T02:46:22.286Z,102415.38
2022-10-06T02:48:48.940Z,102419.81
2022-10-06T02:51:17.635Z,102413.91
2022-10-06T02:53:45.931Z,102416.13
2022-10-06T02:56:17.752Z,102419.16
2022-10-06T02:58:45.377Z,102427.97
2022-10-06T03:01:15.511Z,102434.03
2022-10-06T03:03:42.523Z,102422.69
2022-10-06T03:06:23.456Z,102439.78
2022-10-06T03:09:10.047Z,102446.31
2022-10-06T03:11:39.203Z,102446.13
2022-10-06T03:14:06.890Z,102456.00
2022-10-06T03:16:37.139Z,102461.44
2022-10-06T03:19:04.084Z,102468.16
2022-10-06T03:21:33.238Z,102468.34
2022-10-06T03:24:00.239Z,102470.28
2022-10-06T03:26:56.148Z,102461.81
2022-10-06T03:29:22.609Z,102478.09
2022-10-06T03:31:49.381Z,102487.22
2022-10-06T03:34:15.882Z,102482.81
2022-10-06T03:36:42.450Z,102485.59
2022-10-06T03:39:08.965Z,102491.66
2022-10-06T03:41:37.530Z,102497.09
2022-10-06T03:44:05.075Z,102505.47
2022-10-06T03:46:34.109Z,102506.06
2022-10-06T03:49:01.646Z,102503.66
2022-10-06T03:51:39.990Z,102515.31
2022-10-06T03:54:10.506Z,102515.31
2022-10-06T03:56:40.010Z,102517.84
2022-10-06T03:59:11.895Z,102511.13
2022-10-06T04:01:42.560Z,102523.09
2022-10-06T04:04:10.090Z,102523.88
2022-10-06T04:06:38.667Z,102536.66
2022-10-06T04:09:11.318Z,102532.50
2022-10-06T04:11:42.064Z,102535.78
2022-10-06T04:14:11.142Z,102543.75
2022-10-06T04:16:40.228Z,102556.34
2022-10-06T04:19:10.392Z,102555.84
2022-10-06T04:21:38.222Z,102566.53
2022-10-06T04:24:06.050Z,102571.75
2022-10-06T04:26:37.521Z,102575.88
2022-10-06T04:29:04.525Z,102581.13
2022-10-06T04:31:33.488Z,102585.03
2022-10-06T04:34:01.293Z,102585.03
2022-10-06T04:36:30.957Z,102582.72
2022-10-06T04:38:59.396Z,102587.16
2022-10-06T04:41:28.562Z,102590.28
2022-10-06T04:43:55.610Z,102589.78
2022-10-06T04:46:42.268Z,102595.41
2022-10-06T04:49:13.309Z,102612.00
2022-10-06T04:51:44.416Z,102616.19
2022-10-06T04:54:11.058Z,102613.00
2022-10-06T04:56:37.601Z,102607.25
2022-10-06T04:59:04.045Z,102620.81
2022-10-06T05:01:32.934Z,102614.03
2022-10-06T05:04:01.162Z,102620.53
2022-10-06T05:06:33.294Z,102632.00
2022-10-06T05:09:06.538Z,102639.31
2022-10-06T05:11:33.562Z,102638.53
2022-10-06T05:14:00.259Z,102638.34
2022-10-06T05:16:28.985Z,102638.91
2022-10-06T05:18:56.010Z,102644.94
2022-10-06T05:21:29.129Z,102655.31
2022-10-06T05:23:56.327Z,102649.88
2022-10-06T05:26:25.760Z,102662.03
2022-10-06T05:28:52.398Z,102663.03
2022-10-06T05:31:21.775Z,102660.03
2022-10-06T05:33:48.390Z,102672.19
2022-10-06T05:36:17.590Z,102680.34
2022-10-06T05:38:45.134Z,102678.41
2022-10-06T05:41:15.874Z,102689.28
2022-10-06T05:43:42.805Z,102689.97
2022-10-06T05:46:20.797Z,102688.34
2022-10-06T05:48:55.587Z,102687.75
2022-10-06T05:51:29.370Z,102685.34
2022-10-06T05:53:57.262Z,102699.19
2022-10-06T05:56:29.111Z,102704.13
2022-10-06T05:58:57.506Z,102705.50
2022-10-06T06:01:34.835Z,102706.41
2022-10-06T06:04:06.770Z,102714.84
2022-10-06T06:06:36.287Z,102720.28
2022-10-06T06:09:09.161Z,102724.81
2022-10-06T06:11:38.084Z,102730.72
2022-10-06T06:14:06.695Z,102738.28
2022-10-06T06:16:34.011Z,102733.16
2022-10-06T06:19:01.259Z,102746.00
2022-10-06T06:21:29.005Z,102737.25
2022-10-06T06:23:55.690Z,102741.31
2022-10-06T06:26:27.749Z,102752.66
2022-10-06T06:28:57.027Z,102753.16
2022-10-06T06:31:29.778Z,102753.16
2022-10-06T06:33:58.506Z,102747.38
2022-10-06T06:36:35.524Z,102744.53
2022-10-06T06:39:05.576Z,102748.78
2022-10-06T06:41:35.915Z,102756.84
2022-10-06T06:44:02.361Z,102761.69
2022-10-06T06:46:32.202Z,102765.69
2022-10-06T06:49:04.347Z,102767.53
2022-10-06T06:51:33.188Z,102770.75
2022-10-06T06:54:02.301Z,102785.84
2022-10-06T06:56:35.084Z,102786.03
2022-10-06T06:59:10.916Z,102788.44
2022-10-06T07:01:47.207Z,102794.59
2022-10-06T07:04:15.460Z,102799.44
2022-10-06T07:06:44.650Z,102813.13
2022-10-06T07:09:11.115Z,102809.81
2022-10-06T07:11:40.884Z,102826.81
2022-10-06T07:14:10.184Z,102821.06
2022-10-06T07:16:55.247Z,102814.44
2022-10-06T07:19:40.504Z,102819.78
2022-10-06T07:22:25.482Z,102831.06
2022-10-06T07:25:07.892Z,102840.63
2022-10-06T07:27:38.366Z,102833.16
2022-10-06T07:30:05.760Z,102848.78
2022-10-06T07:32:32.739Z,102851.09
2022-10-06T07:34:59.323Z,102855.09
2022-10-06T07:37:27.080Z,102862.06
2022-10-06T07:39:53.518Z,102867.94
2022-10-06T07:42:20.392Z,102863.69
2022-10-06T07:45:06.048Z,102876.28
2022-10-06T07:47:33.427Z,102891.06
2022-10-06T07:50:00.245Z,102881.38
2022-10-06T07:52:28.846Z,102878.72
2022-10-06T07:54:56.439Z,102870.47
2022-10-06T07:57:23.192Z,102881.44
2022-10-06T07:59:50.581Z,102885.34
2022-10-06T08:02:19.152Z,102885.09
2022-10-06T08:04:45.601Z,102893.66
2022-10-06T08:07:12.600Z,102899.91
2022-10-06T08:09:39.038Z,102886.34
2022-10-06T08:12:25.587Z,102896.06
2022-10-06T08:14:52.206Z,102898.34
2022-10-06T08:17:19.051Z,102903.84
2022-10-06T08:19:45.476Z,102896.22
2022-10-06T08:22:12.561Z,102899.84
2022-10-06T08:25:04.364Z,102900.34
2022-10-06T08:27:27.761Z,102910.97
2022-10-06T08:29:55.288Z,102913.00
2022-10-06T08:32:22.797Z,102913.53
2022-10-06T08:34:49.779Z,102925.34
2022-10-06T08:37:22.634Z,102932.41
2022-10-06T08:39:50.434Z,102935.94
2022-10-06T08:42:25.296Z,102931.66
2022-10-06T08:45:24.116Z,102935.50
2022-10-06T08:48:07.226Z,102940.03
2022-10-06T08:50:39.985Z,102939.41
2022-10-06T08:53:47.070Z,102948.38
2022-10-06T08:56:36.465Z,102945.53
2022-10-06T08:59:04.752Z,102945.38
2022-10-06T09:01:52.220Z,102953.41
2022-10-06T09:04:29.526Z,102959.19
2022-10-06T09:07:15.378Z,102963.88
2022-10-06T09:10:07.154Z,102978.16
2022-10-06T09:12:47.464Z,102971.28
2022-10-06T09:15:28.780Z,102979.81
2022-10-06T09:18:10.595Z,102983.16
2022-10-06T09:20:43.873Z,102975.97
2022-10-06T09:23:16.391Z,102993.97
2022-10-06T09:25:43.286Z,102975.97
2022-10-06T09:28:15.768Z,102984.19
2022-10-06T09:30:43.362Z,102989.31
2022-10-06T09:33:20.746Z,102987.41
2022-10-06T09:36:10.644Z,102989.00
2022-10-06T09:38:53.822Z,102989.00
2022-10-06T09:41:25.376Z,102985.63
2022-10-06T09:44:01.488Z,102997.06
2022-10-06T09:46:33.955Z,103001.72
2022-10-06T09:49:21.203Z,102991.94
2022-10-06T09:52:12.143Z,103002.72
2022-10-06T09:54:41.773Z,103003.88
2022-10-06T09:57:16.045Z,103013.00
2022-10-06T09:59:45.182Z,102996.28
2022-10-06T10:02:41.142Z,103018.94
2022-10-06T10:05:20.019Z,103003.41
2022-10-06T10:07:49.298Z,103006.94
2022-10-06T10:10:25.234Z,102998.56
2022-10-06T10:12:53.662Z,102998.25
2022-10-06T10:15:20.038Z,103008.03
2022-10-06T10:17:50.800Z,103008.38
2022-10-06T10:20:35.545Z,103004.50
2022-10-06T10:23:31.810Z,103012.25
2022-10-06T10:26:27.085Z,103010.97
2022-10-06T10:29:33.447Z,103006.16
2022-10-06T10:32:05.977Z,103005.03
2022-10-06T10:35:22.966Z,103010.47
2022-10-06T10:37:52.285Z,103005.31
2022-10-06T10:40:32.077Z,103017.72
2022-10-06T10:43:21.558Z,103016.91
2022-10-06T10:45:58.065Z,103026.69
2022-10-06T10:48:42.147Z,103010.47
2022-10-06T10:51:19.860Z,103021.56
2022-10-06T10:54:10.879Z,103026.88
2022-10-06T10:56:37.314Z,103025.75
2022-10-06T10:59:22.038Z,103027.69
2022-10-06T11:01:56.232Z,103036.50
2022-10-06T11:04:22.788Z,103038.91
2022-10-06T11:07:11.086Z,103037.97
2022-10-06T11:09:52.232Z,103028.97
2022-10-06T11:12:27.915Z,103045.03
2022-10-06T11:14:54.326Z,103030.41
2022-10-06T11:17:27.309Z,103037.13
2022-10-06T11:20:04.013Z,103040.00
2022-10-06T11:23:18.568Z,103037.47
2022-10-06T11:26:03.781Z,103036.50
2022-10-06T11:28:43.173Z,103024.75
2022-10-06T11:31:22.603Z,103040.22
2022-10-06T11:33:53.090Z,103036.47
2022-10-06T11:36:53.181Z,103059.16
2022-10-06T11:39:40.632Z,103045.66
2022-10-06T11:42:16.909Z,103021.34
2022-10-06T11:45:03.720Z,103022.63
2022-10-06T11:47:36.385Z,103025.06
2022-10-06T11:50:44.476Z,103035.16
2022-10-06T11:53:24.980Z,103029.31
2022-10-06T11:56:17.251Z,103025.69
2022-10-06T11:58:55.794Z,103037.13
2022-10-06T12:01:31.281Z,103026.84
2022-10-06T12:04:09.933Z,103025.53
2022-10-06T12:06:42.503Z,103014.41
2022-10-06T12:09:23.972Z,103025.97
2022-10-06T12:12:00.445Z,103027.56
2022-10-06T12:17:40.610Z,103023.16
2022-10-06T12:20:12.795Z,103015.63
2022-10-06T12:22:47.359Z,103011.88
2022-10-06T12:25:20.542Z,103013.19
2022-10-06T12:28:11.186Z,103018.88
2022-10-06T12:30:55.667Z,103015.75
2022-10-06T12:33:38.857Z,103017.31
2022-10-06T12:36:18.178Z,103021.56
2022-10-06T12:39:07.177Z,103018.22
2022-10-06T12:42:01.379Z,103015.69
2022-10-06T12:44:37.670Z,103014.72
2022-10-06T12:47:10.820Z,103014.81
2022-10-06T12:49:51.298Z,103008.50
2022-10-06T12:52:31.386Z,103017.13
2022-10-06T12:55:28.532Z,103014.34
2022-10-06T12:57:55.719Z,103022.88
2022-10-06T13:00:36.547Z,103020.16
2022-10-06T13:03:07.051Z,103021.13
2022-10-06T13:05:35.735Z,103018.22
2022-10-06T13:08:07.569Z,103017.75
2022-10-06T13:10:34.352Z,103017.16
2022-10-06T13:13:01.423Z,103014.34
2022-10-06T13:18:14.537Z,103009.28
2022-10-06T13:20:52.909Z,103014.09
2022-10-06T13:23:34.120Z,103010.41
2022-10-06T13:26:24.313Z,103014.59
2022-10-06T13:28:53.877Z,103011.69
2022-10-06T13:31:35.015Z,103007.66
2022-10-06T13:34:12.141Z,103008.16
2022-10-06T13:36:41.039Z,103017.28
2022-10-06T13:39:17.526Z,103013.38
2022-10-06T13:41:54.866Z,103009.56
2022-10-06T13:44:23.937Z,103009.56
2022-10-06T13:46:57.849Z,103004.28
2022-10-06T13:49:30.540Z,102997.38
2022-10-06T13:52:01.036Z,103013.34
2022-10-06T13:54:37.836Z,103013.47
2022-10-06T13:57:04.404Z,103009.69
2022-10-06T13:59:38.394Z,103012.00
2022-10-06T14:02:22.794Z,103010.06
2022-10-06T14:05:26.808Z,103017.09
2022-10-06T14:08:02.714Z,103014.63
2022-10-06T14:10:33.455Z,103018.19
2022-10-06T14:13:01.506Z,103012.34
2022-10-06T14:15:32.692Z,103015.22
2022-10-06T14:18:02.383Z,103020.47
2022-10-06T14:20:42.172Z,103017.50
2022-10-06T14:23:33.295Z,103022.63
2022-10-06T14:25:59.948Z,103027.00
2022-10-06T14:28:26.607Z,103022.69
2022-10-06T14:30:53.729Z,103014.34
2022-10-06T14:33:20.232Z,103017.34
2022-10-06T14:35:48.636Z,103017.94
2022-10-06T14:38:15.385Z,103012.06
2022-10-06T14:40:43.194Z,103014.25
2022-10-06T14:43:10.164Z,103006.53
2022-10-06T14:45:41.214Z,103010.72
2022-10-06T14:48:07.662Z,103005.41
2022-10-06T14:50:35.046Z,102997.81
2022-10-06T14:53:01.974Z,103001.94
2022-10-06T14:55:30.607Z,102993.28
2022-10-06T14:57:58.099Z,102989.84
2022-10-06T15:00:28.236Z,102996.13
2022-10-06T15:02:55.942Z,102995.34
2022-10-06T15:05:23.512Z,103000.00
2022-10-06T15:08:09.303Z,102992.00
2022-10-06T15:10:38.092Z,102999.50
2022-10-06T15:13:10.639Z,102999.06
2022-10-06T15:15:37.980Z,102985.69
2022-10-06T15:18:04.645Z,102993.41
2022-10-06T15:20:31.261Z,102989.44
2022-10-06T15:22:58.212Z,102990.28
2022-10-06T15:25:43.619Z,102985.84
2022-10-06T15:28:32.003Z,102987.28
2022-10-06T15:30:58.933Z,102980.19
2022-10-06T15:33:30.155Z,102978.56
2022-10-06T15:36:30.788Z,102976.16
2022-10-06T15:38:58.328Z,102973.56
2022-10-06T15:41:25.871Z,102981.19
2022-10-06T15:43:55.987Z,102975.53
2022-10-06T15:46:34.504Z,102972.84
2022-10-06T15:49:03.711Z,102962.22
2022-10-06T15:51:34.865Z,102972.25
2022-10-06T15:54:01.361Z,102967.59
2022-10-06T15:56:29.386Z,102974.53
2022-10-06T15:58:55.798Z,102985.63
2022-10-06T16:01:35.670Z,102981.59
2022-10-06T16:04:11.877Z,102984.00
2022-10-06T16:06:48.867Z,102984.03
2022-10-06T16:09:18.956Z,102984.06
2022-10-06T16:11:47.134Z,102979.53
2022-10-06T16:14:14.844Z,102982.28
2022-10-06T16:16:43.796Z,102984.56
2022-10-06T16:19:10.915Z,102997.91
2022-10-06T16:21:39.097Z,102972.03
2022-10-06T16:24:05.739Z,102989.56
2022-10-06T16:26:33.129Z,102991.03
2022-10-06T16:29:00.252Z,102988.44
2022-10-06T16:31:27.195Z,102986.19
2022-10-06T16:33:53.932Z,102986.19
2022-10-06T16:36:20.709Z,102988.91
2022-10-06T16:38:50.911Z,102977.97
2022-10-06T16:41:17.597Z,102984.84
2022-10-06T16:43:46.119Z,102985.09
2022-10-06T16:46:15.179Z,102994.06
2022-10-06T16:48:44.105Z,102996.28
2022-10-06T16:51:15.067Z,102988.19
2022-10-06T16:53:43.947Z,102989.09
2022-10-06T16:56:14.106Z,102985.88
2022-10-06T16:58:43.145Z,102986.16
2022-10-06T17:01:11.338Z,102985.50
2022-10-06T17:03:38.465Z,102984.03
2022-10-06T17:06:13.919Z,102985.28
2022-10-06T17:08:41.677Z,102983.53
2022-10-06T17:11:08.061Z,102984.47
2022-10-06T17:13:36.777Z,102986.41
2022-10-06T17:16:09.784Z,102982.41
2022-10-06T17:18:36.583Z,102986.09
2022-10-06T17:21:20.184Z,102982.06
2022-10-06T17:23:58.141Z,102977.69
2022-10-06T17:26:27.547Z,102980.03
2022-10-06T17:28:56.641Z,102979.16
2022-10-06T17:31:28.345Z,102988.53
2022-10-06T17:33:55.741Z,102981.53
2022-10-06T17:36:23.676Z,102984.97
2022-10-06T17:38:56.694Z,102979.66
2022-10-06T17:41:28.101Z,102990.78
2022-10-06T17:43:55.484Z,102981.41
2022-10-06T17:46:22.905Z,102983.66
2022-10-06T17:48:51.511Z,102980.44
2022-10-06T17:51:20.760Z,102984.56
2022-10-06T17:53:49.608Z,102983.56
2022-10-06T17:56:18.982Z,102983.19
2022-10-06T17:58:54.502Z,102978.69
2022-10-06T18:01:23.299Z,102972.22
2022-10-06T18:03:52.747Z,102977.34
2022-10-06T18:06:19.410Z,102975.91
2022-10-06T18:08:48.525Z,102973.75
2022-10-06T18:11:37.981Z,102980.00
2022-10-06T18:14:07.391Z,102983.56
2022-10-06T18:16:45.708Z,102976.22
2022-10-06T18:19:20.191Z,102972.31
2022-10-06T18:21:47.871Z,102972.22
2022-10-06T18:24:16.450Z,102971.25
2022-10-06T18:26:44.058Z,102967.81
2022-10-06T18:29:10.958Z,102960.28
2022-10-06T18:31:38.853Z,102961.66
2022-10-06T18:36:52.873Z,102964.34
2022-10-06T18:39:19.446Z,102962.75
2022-10-06T18:41:46.327Z,102960.88
2022-10-06T18:44:12.810Z,102956.66
2022-10-06T18:46:57.566Z,102960.97
2022-10-06T18:49:25.266Z,102960.47
2022-10-06T18:51:58.284Z,102952.41
2022-10-06T18:54:27.342Z,102967.44
2022-10-06T18:56:55.000Z,102961.78
2022-10-06T18:59:26.320Z,102952.22
2022-10-06T19:01:54.570Z,102958.78
2022-10-06T19:04:22.929Z,102965.03
2022-10-06T19:06:52.297Z,102964.41
2022-10-06T19:09:21.312Z,102958.47
2022-10-06T19:11:52.281Z,102953.22
2022-10-06T19:14:25.413Z,102957.06
2022-10-06T19:16:56.275Z,102955.50
2022-10-06T19:19:24.877Z,102964.34
2022-10-06T19:21:52.834Z,102958.19
2022-10-06T19:24:21.960Z,102956.81
2022-10-06T19:26:50.755Z,102959.81
2022-10-06T19:29:22.378Z,102959.22
2022-10-06T19:31:50.221Z,102966.47
2022-10-06T19:34:17.988Z,102964.53
2022-10-06T19:36:52.906Z,102954.66
2022-10-06T19:39:25.340Z,102955.88
2022-10-06T19:42:10.377Z,102960.72
2022-10-06T19:44:42.579Z,102964.03
2022-10-06T19:47:12.712Z,102962.81
2022-10-06T19:49:39.186Z,102964.97
2022-10-06T19:52:08.179Z,102962.81
2022-10-06T19:54:35.937Z,102954.84
2022-10-06T19:57:05.488Z,102960.91
2022-10-06T19:59:33.142Z,102953.44
2022-10-06T20:01:59.695Z,102957.94
2022-10-06T20:04:26.255Z,102953.69
2022-10-06T20:06:53.309Z,102962.06
2022-10-06T20:09:22.564Z,102963.72
2022-10-06T20:11:50.924Z,102963.59
2022-10-06T20:14:21.232Z,102968.03
2022-10-06T20:16:50.567Z,102961.50
2022-10-06T20:19:18.478Z,102964.63
2022-10-06T20:21:46.019Z,102962.44
2022-10-06T20:24:13.829Z,102966.94
2022-10-06T20:26:42.630Z,102962.13
2022-10-06T20:29:12.093Z,102968.16
2022-10-06T20:31:42.320Z,102967.06
2022-10-06T20:34:11.126Z,102963.69
2022-10-06T20:36:38.554Z,102959.31
2022-10-06T20:39:25.384Z,102962.63
2022-10-06T20:41:53.259Z,102956.66
2022-10-06T20:44:20.009Z,102957.84
2022-10-06T20:46:47.267Z,102961.13
2022-10-06T20:49:17.476Z,102950.22
2022-10-06T20:51:52.150Z,102955.00
2022-10-06T20:54:20.790Z,102945.88
2022-10-06T20:56:50.206Z,102947.56
2022-10-06T20:59:18.077Z,102951.59
2022-10-06T21:01:44.733Z,102944.03
2022-10-06T21:04:11.641Z,102945.34
2022-10-06T21:06:38.390Z,102940.22
2022-10-06T21:09:12.600Z,102939.72
2022-10-06T21:11:39.116Z,102941.63
2022-10-06T21:14:10.303Z,102931.38
2022-10-06T21:16:41.862Z,102932.44
2022-10-06T21:19:13.494Z,102928.41
2022-10-06T21:21:41.096Z,102936.91
2022-10-06T21:24:08.387Z,102938.00
2022-10-06T21:26:35.444Z,102937.28
2022-10-06T21:29:02.215Z,102941.31
2022-10-06T21:31:28.918Z,102935.94
2022-10-06T21:33:55.493Z,102932.13
2022-10-06T21:36:26.786Z,102933.13
2022-10-06T21:38:55.399Z,102939.06
2022-10-06T21:41:31.597Z,102925.84
2022-10-06T21:44:09.771Z,102920.25
2022-10-06T21:46:53.883Z,102929.50
2022-10-06T21:49:22.723Z,102924.94
2022-10-06T21:51:52.494Z,102925.22
2022-10-06T21:54:20.221Z,102917.91
2022-10-06T21:56:47.117Z,102913.53
2022-10-06T21:59:13.560Z,102912.19
2022-10-06T22:01:42.528Z,102902.69
2022-10-06T22:04:10.017Z,102902.28
2022-10-06T22:06:37.587Z,102896.59
2022-10-06T22:09:06.452Z,102895.00
2022-10-06T22:11:35.466Z,102888.97
2022-10-06T22:14:04.592Z,102892.69
2022-10-06T22:16:32.891Z,102891.09
2022-10-06T22:19:01.517Z,102879.94
2022-10-06T22:21:30.352Z,102877.75
2022-10-06T22:24:11.498Z,102880.88
2022-10-06T22:26:40.483Z,102874.66
2022-10-06T22:29:10.093Z,102869.31
2022-10-06T22:31:39.258Z,102878.78
2022-10-06T22:34:06.182Z,102871.50
2022-10-06T22:36:33.621Z,102869.59
2022-10-06T22:39:00.869Z,102873.41
2022-10-06T22:41:27.512Z,102867.94
2022-10-06T22:43:58.246Z,102868.13
2022-10-06T22:46:26.051Z,102856.78
2022-10-06T22:48:53.032Z,102854.97
2022-10-06T22:51:20.505Z,102851.03
2022-10-06T22:53:46.952Z,102852.72
2022-10-06T22:56:13.399Z,102851.63
2022-10-06T22:58:39.949Z,102845.91
2022-10-06T23:01:15.280Z,102855.94
2022-10-06T23:03:41.833Z,102847.59
2022-10-06T23:06:11.714Z,102843.31
2022-10-06T23:08:38.685Z,102837.41
2022-10-06T23:11:16.487Z,102833.03
2022-10-06T23:13:44.396Z,102829.25
2022-10-06T23:16:13.168Z,102837.41
2022-10-06T23:18:41.205Z,102821.41
2022-10-06T23:21:10.460Z,102813.00
2022-10-06T23:23:37.434Z,102809.47
2022-10-06T23:26:09.788Z,102811.66
2022-10-06T23:28:37.298Z,102811.94
2022-10-06T23:31:05.795Z,102810.03
2022-10-06T23:33:32.884Z,102801.41
2022-10-06T23:36:04.704Z,102815.00
2022-10-06T23:38:31.152Z,102804.63
2022-10-06T23:40:57.956Z,102808.63
2022-10-06T23:43:24.399Z,102799.19
2022-10-06T23:45:51.220Z,102793.22
2022-10-06T23:48:18.009Z,102794.53
2022-10-06T23:50:58.399Z,102782.88
2022-10-06T23:53:25.677Z,102797.88
2022-10-06T23:55:52.165Z,102785.50
2022-10-06T23:58:19.073Z,102788.78
